South Milwaukee, WI (53172)

6:59 PM CST on February 27, 2015 (GMT -0600)
South Milwaukee | Change Station
CLOSE
Current Station
Personal Weather Station
Location: South Milwaukee, WI
Elevation: 687 ft
Nearby Weather Stations

Elev 687 ft 42.91 °N, 87.88 °W | Updated 5 seconds ago

Clear
Clear
8.7 °F
Feels Like 9 °F
N
1.0
Wind Variable Wind from SW
Gusts 5.0 mph

Today
High -- | Low -- °F
--% Chance of Precip.
Yesterday
High -- | Low -- °F
Precip. -- in
6:30 AM 5:38 PM
Waxing Gibbous, 73% visible
Pressure 30.65 in
Visibility 10.0 miles
Clouds Clear
Windchill 9 °F
Dew Point -2 °F
Humidity 60%
Rainfall 0.00 in
Snow Depth Not available.
UV 0 out of 12
Pollen .40 out of 12
Air Quality Not available.
Flu Activity Not available.
METAR KMKE 280052Z 24006KT 10SM CLR M12/M21 A3059 RMK AO2 SLP378 T11171211

More Conditions Fewer Conditions

Pressure 30.65 in
Visibility 10.0 miles
Clouds Clear
Windchill 9 °F
Dew Point -2 °F
Humidity 60%
Rainfall 0.00 in
Snow Depth Not available.
UV 0 out of 12
Pollen .40 out of 12
Air Quality Not available.
Flu Activity Not available.
METAR KMKE 280052Z 24006KT 10SM CLR M12/M21 A3059 RMK AO2 SLP378 T11171211

More Conditions Fewer Conditions

10-Day Weather Forecast

Almanac

Astronomy

Feb. 27, 2015 Rise Set
Actual Time
Civil Twilight
Nautical Twilight
Astronomical Twilight
Moon
Length of Visible Light
Length of Day
Tomorrow will be .
, % of the Moon is Illuminated

Today's Extremes

State Highs State Lows

Community

WunderPhotos

Upload Photos

1,800,910 photos uploaded!

WunderBlogs® & News

Nearby

Air Quality

  Air Quality AQ Index Pollutant
Not available.

Snow Depth

Station Depth Elevation

Earthquake Activity

City Distance Mag. Time & Date
Minimum magnitude displayed is 2.5.

Coastal Water Temperatures

Place Temperature

Nearby Weather Stations